Latest Weather Observations for Gold Coast Seaway

IDQ60901

Issued at 6:01 pm EST Tuesday 28 February 2017 (issued every 10 minutes, with the page automatically refreshed every 10 minutes)

About weather observations | Map of Brisbane area stations | Latest observations for Brisbane area | Other Formats
Station Details ID: 040764 Name: GOLD COAST SEAWAY Lat: -27.94 Lon: 153.43 Height: 2.98 m
Data from the previous 72 hours. | See also: Recent months at Gold Coast Seaway
Date/Time
EST
Temp
°C
App
Temp
°C
Dew
Point
°C
Rel
Hum
%
Delta-T
°C
Wind Press
QNH
hPa
Press
MSL
hPa
Rain since
9am
mm
Dir  Spd
km/h
Gust
km/h
Spd
kts
Gust
kts
28/05:30pm 24.5 22.5 20.8 80 2.4 SE 32 39 17 21 1015.9 1015.9 0.0
28/05:00pm 25.5 22.3 19.4 69 3.9 SSE 35 41 19 22 1015.8 1015.8 0.0
28/04:30pm 25.9 22.6 19.3 67 4.2 SSE 35 41 19 22 1015.7 1015.7 0.0
28/04:00pm 26.5 23.9 19.9 67 4.3 SE 33 41 18 22 1015.5 1015.5 0.0
28/03:30pm 27.2 24.4 19.5 62 5.0 SE 33 39 18 21 1015.5 1015.5 0.0
28/03:00pm 27.8 25.3 19.8 61 5.2 SE 32 37 17 20 1015.4 1015.4 0.0
28/02:30pm 27.9 26.0 20.2 63 5.0 SE 30 35 16 19 1015.3 1015.3 0.0
28/02:00pm 28.0 25.6 20.0 61 5.2 SE 32 35 17 19 1015.3 1015.3 0.0
28/01:30pm 28.7 26.5 20.4 60 5.5 SE 32 37 17 20 1015.6 1015.6 0.0
28/01:00pm 28.0 25.5 19.8 61 5.3 SE 32 37 17 20 1016.1 1016.1 0.0
28/12:30pm 28.1 26.2 19.3 58 5.7 SSE 28 32 15 17 1016.2 1016.2 0.0
28/12:00pm 27.7 25.5 19.5 61 5.3 SSE 30 35 16 19 1016.4 1016.4 0.0
28/11:30am 27.3 25.7 19.1 61 5.3 SSE 26 32 14 17 1016.5 1016.5 0.0
28/11:00am 26.9 24.6 18.5 60 5.3 SSE 28 33 15 18 1016.5 1016.5 0.0
28/10:30am 26.7 24.3 19.1 63 4.9 SSE 30 33 16 18 1017.0 1017.0 0.0
28/10:00am 25.2 23.3 18.6 67 4.2 SSE 26 30 14 16 1017.2 1017.2 0.0
28/09:30am 24.6 24.1 19.0 71 3.6 SSE 20 26 11 14 1016.8 1016.8 0.0
28/09:00am 23.5 23.0 18.6 74 3.1 S 19 26 10 14 1016.5 1016.5 0.0
28/08:30am 23.0 22.4 18.5 76 2.8 S 19 26 10 14 1016.5 1016.5 0.0
28/08:00am 22.1 21.2 18.3 79 2.4 S 20 28 11 15 1016.3 1016.3 0.0
28/07:30am 21.6 20.6 18.0 80 2.2 S 20 28 11 15 1016.1 1016.1 0.0
28/07:00am 21.3 20.8 17.9 81 2.1 S 17 24 9 13 1016.0 1016.0 0.0
28/06:30am 21.0 20.5 17.8 82 2.0 S 17 24 9 13 1015.6 1015.6 0.0
28/06:00am 20.7 19.5 17.5 82 2.0 S 20 26 11 14 1015.5 1015.5 0.0
28/05:30am 20.7 19.7 17.5 82 2.0 S 19 28 10 15 1015.3 1015.3 0.0
28/05:00am 20.8 18.1 17.6 82 2.0 S 28 35 15 19 1015.2 1015.2 0.0
28/04:30am 20.8 18.0 17.4 81 2.1 S 28 41 15 22 1015.2 1015.2 0.0
28/04:00am 20.7 17.9 17.3 81 2.1 S 28 37 15 20 1015.1 1015.1 0.0
28/03:30am 20.5 18.5 17.3 82 2.0 S 24 33 13 18 1015.1 1015.1 0.0
28/03:00am 20.4 17.9 17.2 82 2.0 S 26 37 14 20 1015.3 1015.3 0.0
28/02:30am 20.4 17.0 17.6 84 1.7 S 32 43 17 23 1015.7 1015.7 0.0
28/02:00am 20.3 17.4 17.1 82 1.9 S 28 39 15 21 1015.7 1015.7 0.0
28/01:30am 20.2 16.9 17.0 82 1.9 S 30 35 16 19 1015.9 1015.9 0.0
28/01:00am 20.2 19.0 17.0 82 1.9 S 19 26 10 14 1016.5 1016.5 0.0
28/12:30am 20.2 18.0 17.0 82 1.9 S 24 35 13 19 1016.5 1016.5 0.0
28/12:00am 20.3 17.5 17.3 83 1.8 S 28 37 15 20 1017.1 1017.1 0.0
 
Date/Time
EST
Temp
°C
App
Temp
°C
Dew
Point
°C
Rel
Hum
%
Delta-T
°C
Wind Press
QNH
hPa
Press
MSL
hPa
Rain since
9am
mm
Dir  Spd
km/h
Gust
km/h
Spd
kts
Gust
kts
27/11:30pm 20.3 16.4 16.9 81 2.1 S 33 44 18 24 1017.0 1017.0 0.0
27/11:00pm 21.0 15.6 18.0 83 1.9 SSE 43 52 23 28 1017.5 1017.5 0.0
27/10:40pm 21.0 17.3 17.4 80 2.2 S 33 52 18 28 1017.7 1017.7 0.0
27/10:30pm 21.0 16.7 16.8 77 2.6 SSE 35 39 19 21 1017.7 1017.7 0.0
27/10:00pm 20.4 17.8 16.0 76 2.6 S 24 33 13 18 1017.8 1017.8 0.0
27/09:30pm 20.3 19.2 16.3 78 2.4 S 17 26 9 14 1017.7 1017.7 0.0
27/09:00pm 20.2 18.8 16.6 80 2.2 S 19 26 10 14 1017.8 1017.8 0.0
27/08:30pm 20.2 18.7 16.8 81 2.1 S 20 26 11 14 1017.9 1017.9 0.0
27/08:00pm 20.7 19.9 17.9 84 1.7 S 19 28 10 15 1018.0 1018.0 0.0
27/07:30pm 21.2 18.0 18.2 83 1.9 SE 32 35 17 19 1018.1 1018.1 0.0
27/07:05pm 22.0 17.6 19.2 84 1.8 SSE 41 57 22 31 1018.0 1018.0 0.0
27/07:00pm 22.5 18.8 18.3 77 2.6 SSE 35 57 19 31 1017.9 1017.9 0.0
27/06:30pm 22.1 18.6 16.6 71 3.3 S 30 37 16 20 1017.2 1017.2 0.0
27/06:00pm 22.8 19.0 16.8 69 3.7 S 32 39 17 21 1017.2 1017.2 0.0
27/05:30pm 23.5 19.9 17.3 68 3.8 S 32 39 17 21 1016.9 1016.9 0.0
27/05:00pm 23.0 19.7 17.0 69 3.7 S 30 39 16 21 1016.9 1016.9 0.0
27/04:30pm 23.4 20.3 17.4 69 3.7 SSE 30 37 16 20 1016.8 1016.8 0.0
27/04:00pm 22.7 19.2 17.4 72 3.3 S 32 37 17 20 1016.5 1016.5 0.0
27/03:30pm 22.4 17.4 18.0 76 2.7 SSE 41 50 22 27 1016.2 1016.2 0.0
27/03:00pm 22.7 18.4 17.8 74 3.0 S 37 44 20 24 1016.5 1016.5 0.0
27/02:30pm 22.6 18.6 17.5 73 3.2 S 35 43 19 23 1016.6 1016.6 0.0
27/02:00pm 23.0 19.0 17.7 72 3.3 S 35 43 19 23 1016.9 1016.9 0.0
27/01:30pm 22.5 17.2 17.2 72 3.3 SSE 41 50 22 27 1017.3 1017.3 0.0
27/01:00pm 23.3 19.0 18.6 75 3.0 SSE 39 44 21 24 1017.6 1017.6 0.0
27/12:30pm 23.3 19.9 18.2 73 3.2 SSE 33 43 18 23 1017.9 1017.9 0.0
27/12:00pm 23.0 19.7 17.9 73 3.2 SSE 32 35 17 19 1018.0 1018.0 0.0
27/11:30am 23.0 20.2 18.1 74 3.1 S 30 35 16 19 1018.4 1018.4 0.0
27/11:00am 24.1 22.2 19.4 75 3.0 S 28 32 15 17 1018.6 1018.6 0.0
27/10:30am 22.8 21.3 18.6 77 2.6 S 24 28 13 15 1018.8 1018.8 0.0
27/10:00am 22.6 20.7 18.6 78 2.5 S 26 32 14 17 1018.8 1018.8 0.0
27/09:30am 22.4 20.2 18.8 80 2.3 S 28 33 15 18 1018.9 1018.9 0.0
27/09:00am 21.8 18.6 18.6 82 2.0 S 33 39 18 21 1018.7 1018.7 2.2
27/08:30am 22.0 18.4 18.6 81 2.1 SSE 35 43 19 23 1018.5 1018.5 2.2
27/08:00am 22.3 21.5 18.5 79 2.4 S 20 28 11 15 1017.9 1017.9 2.2
27/07:30am 22.0 19.1 18.0 78 2.5 SSE 30 33 16 18 1017.7 1017.7 2.2
27/07:00am 21.1 18.1 18.7 86 1.5 SE 32 39 17 21 1017.4 1017.4 2.2
27/06:30am 20.6 18.6 19.1 91 0.9 SSE 28 32 15 17 1017.1 1017.1 2.2
27/06:00am 20.5 17.8 19.3 93 0.8 SSE 32 37 17 20 1017.2 1017.2 2.2
27/05:30am 20.4 17.3 19.6 95 0.5 SSE 35 41 19 22 1017.1 1017.1 2.2
27/05:00am 20.2 16.9 19.2 94 0.6 SSE 35 54 19 29 1016.9 1016.9 2.2
27/04:33am 20.9 18.0 19.2 90 1.1 SSE 33 52 18 28 1016.3 1016.3 2.0
27/04:30am 20.8 17.8 18.6 87 1.4 SSE 32 41 17 22 1016.2 1016.2 2.0
27/04:00am 21.3 18.3 17.7 80 2.2 SSE 30 33 16 18 1015.7 1015.7 0.2
27/03:30am 21.5 17.8 18.3 82 2.0 SSE 35 44 19 24 1015.8 1015.8 0.2
27/03:00am 21.6 18.1 17.4 77 2.6 S 32 41 17 22 1015.6 1015.6 0.2
27/02:30am 21.8 18.7 17.6 77 2.6 S 30 39 16 21 1015.5 1015.5 0.2
27/02:00am 21.9 18.4 17.5 76 2.7 S 32 41 17 22 1015.5 1015.5 0.2
27/01:30am 22.2 18.8 17.6 75 2.8 S 32 43 17 23 1015.6 1015.6 0.2
27/01:00am 22.0 20.2 17.8 77 2.6 S 24 32 13 17 1016.0 1016.0 0.2
27/12:30am 22.0 19.2 17.4 75 2.8 S 28 37 15 20 1016.1 1016.1 0.2
27/12:00am 21.8 18.2 17.2 75 2.8 S 32 44 17 24 1016.5 1016.5 0.2
 
Date/Time
EST
Temp
°C
App
Temp
°C
Dew
Point
°C
Rel
Hum
%
Delta-T
°C
Wind Press
QNH
hPa
Press
MSL
hPa
Rain since
9am
mm
Dir  Spd
km/h
Gust
km/h
Spd
kts
Gust
kts
26/11:30pm 21.1 17.9 17.3 79 2.3 S 30 43 16 23 1016.8 1016.8 0.2
26/11:00pm 21.9 18.8 18.5 81 2.1 SSE 32 39 17 21 1017.1 1017.1 0.0
26/10:30pm 22.0 18.4 18.6 81 2.1 SSE 35 44 19 24 1016.9 1016.9 0.0
26/10:00pm 23.0 20.4 19.4 80 2.3 SE 32 41 17 22 1017.3 1017.3 0.0
26/09:30pm 23.1 19.3 18.0 73 3.2 S 35 43 19 23 1017.6 1017.6 0.0
26/09:00pm 22.9 20.4 18.0 74 3.1 S 28 33 15 18 1017.0 1017.0 0.0
26/08:30pm 23.8 20.6 19.5 77 2.8 SSE 35 46 19 25 1017.2 1017.2 0.0
26/08:14pm 23.3 18.0 18.6 75 3.0 SE 44 61 24 33 1017.1 1017.1 0.0
26/08:06pm 22.8 16.4 16.8 69 3.7 SSE 46 74 25 40 1017.1 1017.1 0.0
26/08:03pm 22.3 16.5 16.1 68 3.7 SSE 41 72 22 39 1017.0 1017.0 0.0
26/08:01pm 23.2 19.4 18.1 73 3.2 SSE 35 54 19 29 1017.2 1017.2 0.0
26/08:00pm 23.9 20.5 19.0 74 3.1 SSE 35 52 19 28 1017.2 1017.2 0.0
26/07:59pm 24.0 20.9 18.9 73 3.2 S 33 52 18 28 1017.0 1017.0 0.0
26/07:30pm 24.0 20.6 18.9 73 3.2 SSE 35 44 19 24 1016.6 1016.6 0.0
26/07:00pm 24.2 19.8 18.4 70 3.7 SSE 39 48 21 26 1016.3 1016.3 0.0
26/06:30pm 24.4 19.6 18.3 69 3.8 SSE 41 50 22 27 1016.0 1016.0 0.0
26/06:00pm 24.8 19.7 19.0 70 3.7 SSE 44 56 24 30 1015.5 1015.5 0.0
26/05:30pm 25.9 21.9 19.3 67 4.2 SSE 39 48 21 26 1015.5 1015.5 0.0
26/05:00pm 25.7 20.6 17.6 61 5.1 SSE 41 50 22 27 1015.4 1015.4 0.0
26/04:30pm 27.0 22.9 19.1 62 5.1 SSE 39 48 21 26 1015.1 1015.1 0.0
26/04:00pm 27.2 23.0 18.8 60 5.4 SSE 39 50 21 27 1015.3 1015.3 0.0
26/03:30pm 26.5 21.0 18.1 60 5.3 SSE 44 56 24 30 1015.2 1015.2 0.0
26/03:00pm 27.0 21.6 17.8 57 5.8 SSE 43 54 23 29 1015.2 1015.2 0.0
26/02:30pm 26.8 21.4 18.4 60 5.3 SSE 44 54 24 29 1014.9 1014.9 0.0
26/02:00pm 28.9 24.5 18.4 53 6.7 SE 39 48 21 26 1015.1 1015.1 0.0
26/01:30pm 28.4 24.2 18.8 56 6.2 SE 39 44 21 24 1015.3 1015.3 0.0
26/01:00pm 29.1 24.1 17.9 50 7.1 SE 41 50 22 27 1015.6 1015.6 0.0
26/12:30pm 30.0 24.6 17.8 48 7.8 SE 43 50 23 27 1015.8 1015.8 0.0
26/12:00pm 29.6 24.7 19.0 53 6.9 SE 43 50 23 27 1015.9 1015.9 0.0
26/11:30am 29.3 25.0 18.7 52 6.8 SE 39 48 21 26 1016.0 1016.0 0.0
26/11:00am 28.8 24.3 18.3 53 6.7 SE 39 48 21 26 1016.4 1016.4 0.0
26/10:30am 28.3 24.0 17.8 53 6.7 SE 37 46 20 25 1016.5 1016.5 0.0
26/10:00am 27.9 23.8 18.3 56 6.1 SE 37 44 20 24 1016.7 1016.7 0.0
26/09:30am 27.4 23.7 18.4 58 5.7 SSE 35 43 19 23 1016.6 1016.6 0.0
26/09:00am 26.8 23.4 18.1 59 5.5 SSE 33 39 18 21 1016.3 1016.3 0.0
26/08:30am 26.1 22.3 18.0 61 5.1 SSE 35 41 19 22 1016.3 1016.3 0.0
26/08:00am 25.5 22.3 18.7 66 4.3 SSE 33 41 18 22 1015.9 1015.9 0.0
26/07:30am 24.6 21.5 18.3 68 4.0 S 32 35 17 19 1015.6 1015.6 0.0
26/07:00am 24.4 23.4 17.6 66 4.2 S 19 30 10 16 1015.4 1015.4 0.0
26/06:30am 22.9 22.8 17.8 73 3.2 SSW 15 22 8 12 1015.1 1015.1 0.0
26/06:00am 22.2 21.6 17.6 75 2.8 S 17 22 9 12 1014.7 1014.7 0.0
26/05:30am 22.0 21.3 17.4 75 2.8 S 17 20 9 11 1014.4 1014.4 0.0
26/05:00am 22.3 21.1 17.4 74 3.0 S 20 30 11 16 1014.1 1014.1 0.0
26/04:30am 22.4 19.8 17.8 75 2.9 S 28 33 15 18 1013.9 1013.9 0.0
26/04:00am 22.0 21.3 17.4 75 2.8 S 17 22 9 12 1013.7 1013.7 0.0
26/03:30am 22.1 20.8 17.2 74 3.0 S 20 30 11 16 1013.6 1013.6 0.0
26/03:00am 22.2 21.1 17.3 74 3.0 S 19 28 10 15 1013.9 1013.9 0.0
26/02:30am 22.2 19.4 17.3 74 3.0 S 28 33 15 18 1013.9 1013.9 0.0
26/02:00am 22.2 20.4 17.8 76 2.7 S 24 32 13 17 1014.1 1014.1 0.0
26/01:30am 22.8 19.6 18.1 75 2.9 SSE 32 43 17 23 1014.2 1014.2 0.0
26/01:00am 23.3 20.5 17.3 69 3.7 S 28 35 15 19 1014.6 1014.6 0.0
26/12:30am 23.1 21.4 17.1 69 3.7 S 22 32 12 17 1015.0 1015.0 0.0
26/12:00am 23.0 20.8 16.8 68 3.8 S 24 33 13 18 1015.5 1015.5 0.0
 
Date/Time
EST
Temp
°C
App
Temp
°C
Dew
Point
°C
Rel
Hum
%
Delta-T
°C
Wind Press
QNH
hPa
Press
MSL
hPa
Rain since
9am
mm
Dir  Spd
km/h
Gust
km/h
Spd
kts
Gust
kts
25/11:30pm 22.9 21.0 16.7 68 3.8 S 22 30 12 16 1015.8 1015.8 0.0
25/11:00pm 22.9 20.1 16.4 67 3.9 S 26 35 14 19 1016.0 1016.0 0.0
25/10:30pm 23.1 19.9 16.4 66 4.1 S 28 39 15 21 1015.9 1015.9 0.0
25/10:00pm 23.3 20.0 16.1 64 4.4 S 28 35 15 19 1016.2 1016.2 0.0
25/09:30pm 23.2 20.3 16.0 64 4.4 S 26 33 14 18 1016.1 1016.1 0.0
25/09:00pm 23.3 19.6 15.9 63 4.5 S 30 39 16 21 1016.2 1016.2 0.0
25/08:30pm 23.4 19.7 16.9 67 4.0 SSE 32 39 17 21 1015.8 1015.8 0.0
25/08:00pm 23.7 19.5 17.2 67 4.0 SSE 35 41 19 22 1015.7 1015.7 0.0
25/07:30pm 24.0 18.7 17.3 66 4.2 SSE 41 50 22 27 1015.4 1015.4 0.0
25/07:00pm 24.4 19.4 18.8 71 3.6 SSE 43 52 23 28 1015.2 1015.2 0.0
25/06:30pm 24.4 19.5 18.1 68 4.0 SSE 41 50 22 27 1014.9 1014.9 0.0

Latest Capital City Observations: Canberra | Sydney | Melbourne | Brisbane | Adelaide | Perth | Hobart | Darwin

Other Formats:

Comma delimited format used in spreadsheet applications
http://www.bom.gov.au/fwo/IDQ60901/IDQ60901.94580.axf

JavaScript Object Notation format (JSON) in row-major order
http://www.bom.gov.au/fwo/IDQ60901/IDQ60901.94580.json